Time;durP1;ratioP1;P1;durP2;ratioP2;P2;SDS_P1;SDS_P2;PMS_P1;PMS_P2;Temp;Humidity;BMP_temperature;BMP_pressure;BME280_temperature;BME280_humidity;BME280_pressure;Samples;Min_cycle;Max_cycle;Signal;HPM_P1;HPM_P2
2022/05/18 00:00:32;;;;;;;5.55;2.00;;;25.00;99.90;;;;;;4954828;28;20043;-47
2022/05/18 00:03:04;;;;;;;6.80;2.88;;;25.00;99.90;;;;;;4954468;28;20031;-47
2022/05/18 00:05:31;;;;;;;5.13;2.47;;;24.90;99.90;;;;;;4954450;28;20035;-46
2022/05/18 00:07:57;;;;;;;4.82;2.35;;;25.00;99.90;;;;;;4954261;28;20103;-47
2022/05/18 00:10:23;;;;;;;6.65;2.20;;;25.00;99.90;;;;;;4954072;28;20110;-47
2022/05/18 00:12:50;;;;;;;3.88;2.10;;;25.00;99.90;;;;;;4954524;28;20077;-47
2022/05/18 00:15:19;;;;;;;8.20;2.65;;;25.00;99.90;;;;;;4954184;28;20051;-47
2022/05/18 00:17:45;;;;;;;8.43;3.67;;;24.90;99.90;;;;;;4953311;28;20082;-48
2022/05/18 00:20:12;;;;;;;31.00;3.13;;;25.00;99.90;;;;;;4954009;28;20027;-48
2022/05/18 00:22:49;;;;;;;8.50;3.53;;;25.00;99.90;;;;;;4953857;28;20075;-48
2022/05/18 00:25:17;;;;;;;8.00;3.08;;;24.90;99.90;;;;;;4953841;28;20039;-48
2022/05/18 00:27:43;;;;;;;;;;;24.90;99.90;;;;;;4957500;28;20031;-47
2022/05/18 00:30:11;;;;;;;9.88;3.08;;;24.90;99.90;;;;;;4953802;28;19918;-46
2022/05/18 00:32:37;;;;;;;9.25;2.75;;;24.90;99.90;;;;;;4952664;29;20039;-46
2022/05/18 00:35:03;;;;;;;7.57;3.05;;;24.80;99.90;;;;;;4953817;28;20027;-45
2022/05/18 00:37:29;;;;;;;5.13;2.95;;;24.80;99.90;;;;;;4953897;28;20046;-46
2022/05/18 00:39:57;;;;;;;12.45;4.10;;;24.70;99.90;;;;;;4953137;28;20475;-46
2022/05/18 00:42:25;;;;;;;10.00;4.18;;;24.70;99.90;;;;;;4922936;29;20448;-46
2022/05/18 00:44:51;;;;;;;8.13;4.50;;;24.40;99.90;;;;;;4945267;28;20842;-46
2022/05/18 00:47:17;;;;;;;12.27;3.97;;;24.10;99.90;;;;;;4947579;28;20419;-46
2022/05/18 00:49:47;;;;;;;12.77;4.03;;;24.00;99.90;;;;;;4947367;29;20483;-45
2022/05/18 00:52:17;;;;;;;8.10;3.55;;;23.70;99.90;;;;;;4944925;29;20047;-46
2022/05/18 00:54:43;;;;;;;5.57;2.63;;;23.60;99.90;;;;;;4952405;28;20111;-45
2022/05/18 00:57:15;;;;;;;6.60;2.92;;;23.40;99.90;;;;;;4945976;28;20433;-46
2022/05/18 00:59:55;;;;;;;7.35;2.72;;;23.30;99.90;;;;;;4971413;23;20058;-51
2022/05/18 01:02:23;;;;;;;4.47;2.80;;;23.30;99.90;;;;;;5011015;28;20034;-52
2022/05/18 01:04:53;;;;;;;7.18;2.30;;;23.30;99.90;;;;;;5009008;28;20018;-52
2022/05/18 01:07:27;;;;;;;6.05;2.72;;;23.40;99.90;;;;;;5011175;28;20033;-52
2022/05/18 01:09:53;;;;;;;8.73;2.42;;;23.50;99.90;;;;;;5009234;28;20036;-52
2022/05/18 01:12:21;;;;;;;10.82;3.25;;;23.60;99.90;;;;;;5010414;28;20022;-52
2022/05/18 01:15:04;;;;;;;4.43;2.55;;;23.70;99.90;;;;;;5010706;28;20565;-54
2022/05/18 01:17:33;;;;;;;4.47;2.47;;;23.70;99.90;;;;;;5010187;28;20029;-53
2022/05/18 01:20:05;;;;;;;5.15;2.10;;;23.80;99.90;;;;;;5007381;28;20466;-52
2022/05/18 01:22:46;;;;;;;6.03;2.35;;;23.80;99.90;;;;;;5006575;28;20037;-53
2022/05/18 01:25:24;;;;;;;3.47;2.00;;;23.90;99.90;;;;;;5008280;28;20355;-53
2022/05/18 01:27:51;;;;;;;5.55;1.80;;;23.90;99.90;;;;;;5009336;28;20022;-53
2022/05/18 01:30:16;;;;;;;5.25;2.00;;;23.90;99.90;;;;;;5010682;28;20457;-53
2022/05/18 01:32:48;;;;;;;6.97;2.58;;;23.90;99.90;;;;;;5010116;28;20034;-52
2022/05/18 01:35:18;;;;;;;4.53;1.42;;;23.90;99.90;;;;;;5011340;28;20041;-53
2022/05/18 01:37:44;;;;;;;5.07;1.63;;;23.90;99.90;;;;;;5011534;28;20026;-53
2022/05/18 01:40:19;;;;;;;4.35;1.45;;;23.90;99.90;;;;;;5009278;28;20030;-52
2022/05/18 01:42:49;;;;;;;5.03;1.48;;;24.00;99.90;;;;;;5010775;28;20048;-52
2022/05/18 01:45:15;;;;;;;4.78;1.48;;;24.00;99.90;;;;;;5014223;28;20081;-52
2022/05/18 01:47:42;;;;;;;3.72;1.60;;;24.00;99.90;;;;;;5013847;28;20096;-52
2022/05/18 01:50:14;;;;;;;3.67;1.42;;;23.90;99.90;;;;;;5011723;28;20057;-51
2022/05/18 01:52:40;;;;;;;7.85;2.28;;;24.00;99.90;;;;;;5010271;28;20497;-51
2022/05/18 01:55:07;;;;;;;2.63;1.40;;;24.00;99.90;;;;;;5014952;28;20034;-52
2022/05/18 01:57:34;;;;;;;4.40;1.40;;;24.00;99.90;;;;;;5013956;28;20026;-52
2022/05/18 02:00:01;;;;;;;7.10;1.58;;;24.00;99.90;;;;;;5020985;23;20138;-46
2022/05/18 02:02:27;;;;;;;5.68;1.25;;;24.00;99.90;;;;;;4992683;28;20034;-46
2022/05/18 02:04:53;;;;;;;3.88;1.65;;;24.00;99.90;;;;;;4994426;28;20530;-45
2022/05/18 02:07:18;;;;;;;3.80;1.58;;;24.00;99.90;;;;;;4989100;28;21063;-47
2022/05/18 02:09:44;;;;;;;2.97;1.58;;;24.00;99.90;;;;;;4990227;28;20512;-45
2022/05/18 02:12:12;;;;;;;3.78;1.13;;;24.10;99.90;;;;;;4992977;28;20378;-44
2022/05/18 02:14:39;;;;;;;2.40;1.50;;;24.10;99.90;;;;;;4989187;28;20035;-45
2022/05/18 02:17:05;;;;;;;3.50;1.25;;;24.00;99.90;;;;;;4988795;28;20072;-45
2022/05/18 02:19:31;;;;;;;2.95;1.92;;;24.10;99.90;;;;;;4993954;28;20064;-45
2022/05/18 02:21:56;;;;;;;2.75;1.50;;;24.10;99.90;;;;;;4994430;28;20065;-45
2022/05/18 02:24:22;;;;;;;2.92;1.35;;;24.10;99.90;;;;;;4994919;28;20035;-45
2022/05/18 02:26:48;;;;;;;7.35;2.20;;;24.10;99.90;;;;;;4994898;28;20026;-45
2022/05/18 02:29:14;;;;;;;6.47;1.83;;;24.10;99.90;;;;;;4994777;28;20378;-47
2022/05/18 02:31:39;;;;;;;3.88;1.20;;;24.10;99.90;;;;;;4994844;28;20029;-46
2022/05/18 02:34:05;;;;;;;2.67;1.30;;;24.20;99.90;;;;;;4992976;28;20085;-46
2022/05/18 02:36:31;;;;;;;7.60;1.48;;;24.20;99.90;;;;;;4993843;28;20026;-46
2022/05/18 02:38:57;;;;;;;5.45;1.65;;;24.20;99.90;;;;;;4991259;28;20394;-45
2022/05/18 02:41:23;;;;;;;5.18;1.65;;;24.20;99.90;;;;;;4992686;28;20039;-45
2022/05/18 02:43:51;;;;;;;4.20;1.63;;;24.20;99.90;;;;;;4993453;28;20478;-45
2022/05/18 02:46:20;;;;;;;4.53;1.23;;;24.20;99.90;;;;;;4994016;28;20026;-46
2022/05/18 02:48:47;;;;;;;3.92;1.85;;;24.20;99.90;;;;;;4991952;28;20359;-46
2022/05/18 02:51:14;;;;;;;3.15;1.52;;;24.20;99.90;;;;;;4993554;28;20432;-46
2022/05/18 02:53:40;;;;;;;;;;;24.20;99.90;;;;;;4990843;28;20035;-45
2022/05/18 02:56:09;;;;;;;4.05;1.42;;;24.20;99.90;;;;;;4993227;28;19974;-46
2022/05/18 02:58:40;;;;;;;2.42;1.35;;;24.20;99.90;;;;;;4992708;28;20034;-46
2022/05/18 03:01:18;;;;;;;4.68;1.27;;;24.20;99.90;;;;;;4994191;28;20383;-46
2022/05/18 03:03:45;;;;;;;5.00;1.50;;;24.20;99.90;;;;;;4993622;28;20063;-46
2022/05/18 03:06:13;;;;;;;6.15;1.92;;;24.20;99.90;;;;;;4993809;28;20288;-46
2022/05/18 03:08:41;;;;;;;4.22;1.42;;;24.20;99.90;;;;;;4993697;28;20042;-46
2022/05/18 03:11:07;;;;;;;3.50;1.27;;;24.20;99.90;;;;;;4993717;28;20125;-46
2022/05/18 03:13:33;;;;;;;2.97;1.35;;;24.20;99.90;;;;;;4993717;28;20018;-46
2022/05/18 03:16:00;;;;;;;4.50;1.30;;;24.10;99.90;;;;;;4993695;28;20026;-46
2022/05/18 03:18:26;;;;;;;2.93;1.33;;;24.20;99.90;;;;;;4993810;28;20023;-46
2022/05/18 03:23:37;;;;;;;6.43;1.73;;;24.20;99.90;;;;;;4993925;28;20081;-46
2022/05/18 03:26:06;;;;;;;2.23;1.50;;;24.20;99.90;;;;;;4993783;28;20109;-46
2022/05/18 03:28:32;;;;;;;4.28;1.45;;;24.20;99.90;;;;;;4993829;28;20022;-47
2022/05/18 03:30:58;;;;;;;4.68;1.80;;;24.20;99.90;;;;;;4993432;28;20034;-46
2022/05/18 03:33:23;;;;;;;3.35;1.55;;;24.20;99.90;;;;;;4993720;28;20030;-47
2022/05/18 03:35:50;;;;;;;4.50;1.67;;;24.20;99.90;;;;;;4993782;28;20041;-47
2022/05/18 03:38:18;;;;;;;2.30;1.43;;;24.20;99.90;;;;;;4993740;28;20104;-47
2022/05/18 03:40:44;;;;;;;2.88;1.48;;;24.20;99.90;;;;;;4993463;28;20045;-46
2022/05/18 03:43:09;;;;;;;4.18;1.52;;;24.20;99.90;;;;;;4992213;28;20393;-46
2022/05/18 03:45:35;;;;;;;3.00;1.30;;;24.20;99.90;;;;;;4993362;28;20035;-46
2022/05/18 03:48:01;;;;;;;3.17;2.05;;;24.20;99.90;;;;;;4993663;28;20030;-46
2022/05/18 03:50:30;;;;;;;4.30;1.40;;;24.20;99.90;;;;;;4993358;28;20026;-45
2022/05/18 03:52:58;;;;;;;3.13;1.75;;;24.20;99.90;;;;;;4993476;28;20037;-45
2022/05/18 03:55:24;;;;;;;5.80;1.40;;;24.20;99.90;;;;;;4993283;28;20026;-46
2022/05/18 03:57:50;;;;;;;6.10;1.33;;;24.20;99.90;;;;;;4993228;28;20243;-46
2022/05/18 04:00:16;;;;;;;7.30;1.58;;;24.20;99.90;;;;;;4993597;28;20188;-46
2022/05/18 04:02:43;;;;;;;3.35;1.10;;;24.20;99.90;;;;;;4993344;28;20236;-46
2022/05/18 04:05:10;;;;;;;2.78;1.45;;;24.20;99.90;;;;;;4992262;28;20030;-46
2022/05/18 04:07:35;;;;;;;2.47;1.20;;;24.20;99.90;;;;;;4992999;28;20032;-45
2022/05/18 04:10:01;;;;;;;3.15;1.00;;;24.20;99.90;;;;;;4992685;28;20034;-46
2022/05/18 04:12:27;;;;;;;2.13;1.40;;;24.20;99.90;;;;;;4992996;28;20030;-46
2022/05/18 04:14:54;;;;;;;3.03;1.30;;;24.20;99.90;;;;;;4993177;28;20097;-46
2022/05/18 04:17:25;;;;;;;3.73;1.70;;;24.20;99.90;;;;;;4992813;28;20443;-47
2022/05/18 04:19:52;;;;;;;5.28;1.52;;;24.30;99.90;;;;;;4992494;28;20022;-46
2022/05/18 04:22:18;;;;;;;2.13;1.25;;;24.20;99.90;;;;;;4992799;28;20088;-46
2022/05/18 04:24:43;;;;;;;4.93;1.38;;;24.20;99.90;;;;;;4992697;28;20505;-46
2022/05/18 04:27:10;;;;;;;6.30;1.48;;;24.20;99.90;;;;;;4991401;28;20061;-46
2022/05/18 04:29:36;;;;;;;3.13;1.40;;;24.20;99.90;;;;;;4992670;28;20364;-46
2022/05/18 04:32:03;;;;;;;3.47;1.27;;;24.20;99.90;;;;;;4992787;28;20113;-46
2022/05/18 04:34:29;;;;;;;2.30;1.88;;;24.20;99.90;;;;;;4992535;28;20038;-46
2022/05/18 04:36:55;;;;;;;4.78;1.85;;;24.20;99.90;;;;;;4992569;28;20406;-46
2022/05/18 04:39:21;;;;;;;6.97;1.40;;;24.30;99.90;;;;;;4992516;28;20022;-46
2022/05/18 04:41:46;;;;;;;4.38;1.70;;;24.20;99.90;;;;;;4992403;28;20049;-46
2022/05/18 04:44:12;;;;;;;5.53;1.40;;;24.20;99.90;;;;;;4992401;28;20027;-46
2022/05/18 04:46:40;;;;;;;5.40;1.38;;;24.20;99.90;;;;;;4992341;28;20129;-46
2022/05/18 04:49:06;;;;;;;4.70;2.05;;;24.30;99.90;;;;;;4992642;28;20080;-46
2022/05/18 04:51:33;;;;;;;2.70;1.40;;;24.30;99.90;;;;;;4992538;28;20026;-45
2022/05/18 04:53:58;;;;;;;3.38;1.95;;;24.30;99.90;;;;;;4992227;28;20061;-45
2022/05/18 04:56:24;;;;;;;3.78;2.10;;;24.30;99.90;;;;;;4992431;28;20112;-45
2022/05/18 04:58:51;;;;;;;3.85;1.63;;;24.30;99.90;;;;;;4992202;28;20037;-45
2022/05/18 05:01:17;;;;;;;9.60;1.73;;;24.40;99.90;;;;;;4974641;28;20431;-46
2022/05/18 05:03:43;;;;;;;4.30;1.23;;;24.40;99.90;;;;;;4992077;28;20033;-46
2022/05/18 05:06:09;;;;;;;8.52;2.13;;;24.40;99.90;;;;;;4991984;28;20034;-46
2022/05/18 05:08:37;;;;;;;6.95;1.95;;;24.40;99.90;;;;;;4992259;28;20023;-46
2022/05/18 05:11:04;;;;;;;6.55;2.45;;;24.40;99.90;;;;;;4992105;28;20474;-46
2022/05/18 05:13:31;;;;;;;7.43;2.63;;;24.40;99.90;;;;;;4991853;28;20026;-46
2022/05/18 05:16:08;;;;;;;3.05;1.45;;;24.40;99.90;;;;;;4991626;28;20081;-46
2022/05/18 05:18:35;;;;;;;6.43;1.73;;;24.50;99.90;;;;;;4992084;28;20027;-46
2022/05/18 05:21:01;;;;;;;6.70;2.45;;;24.50;99.90;;;;;;4991941;28;20089;-45
2022/05/18 05:23:28;;;;;;;6.70;1.95;;;24.50;99.90;;;;;;4991936;28;20026;-46
2022/05/18 05:25:55;;;;;;;6.93;2.93;;;24.50;99.90;;;;;;4990491;28;20483;-46
2022/05/18 05:28:22;;;;;;;8.18;2.38;;;24.50;99.90;;;;;;4991878;28;20145;-45
2022/05/18 05:30:48;;;;;;;7.60;2.03;;;24.60;99.90;;;;;;4991603;28;20035;-45
2022/05/18 05:33:14;;;;;;;3.75;2.00;;;24.60;99.90;;;;;;4991715;28;20053;-46
2022/05/18 05:35:42;;;;;;;3.92;1.80;;;24.60;99.90;;;;;;4991386;28;20398;-46
2022/05/18 05:38:09;;;;;;;4.40;1.70;;;24.60;99.90;;;;;;4991887;28;20031;-46
2022/05/18 05:40:36;;;;;;;5.35;2.47;;;24.60;99.90;;;;;;4991822;28;20031;-46
2022/05/18 05:43:09;;;;;;;4.82;1.98;;;24.60;99.90;;;;;;4990619;28;20057;-46
2022/05/18 05:45:36;;;;;;;8.93;2.28;;;24.60;99.90;;;;;;4991768;28;20117;-46
2022/05/18 05:48:03;;;;;;;11.90;2.15;;;24.70;99.90;;;;;;4991679;28;20023;-46
2022/05/18 05:50:30;;;;;;;5.83;2.40;;;24.70;99.90;;;;;;4991663;28;20022;-46
2022/05/18 05:52:57;;;;;;;;;;;24.70;99.90;;;;;;4992114;28;20533;-46
2022/05/18 05:55:23;;;;;;;5.00;1.60;;;24.70;99.90;;;;;;4991612;28;19934;-46
2022/05/18 05:57:48;;;;;;;5.93;2.60;;;24.70;99.90;;;;;;4991669;28;20062;-47
2022/05/18 06:00:15;;;;;;;8.98;3.15;;;24.70;99.90;;;;;;4991510;28;20051;-47
2022/05/18 06:02:41;;;;;;;9.95;3.50;;;24.70;99.90;;;;;;4991443;28;20030;-46
2022/05/18 06:05:07;;;;;;;7.05;2.53;;;24.80;99.90;;;;;;4991840;28;20102;-46
2022/05/18 06:07:33;;;;;;;9.95;3.25;;;24.80;99.90;;;;;;4990929;28;20022;-47
2022/05/18 06:09:59;;;;;;;4.35;2.67;;;24.80;99.90;;;;;;4991409;28;20026;-47
2022/05/18 06:12:25;;;;;;;12.32;4.03;;;24.80;99.90;;;;;;4991291;28;20443;-47
2022/05/18 06:14:51;;;;;;;7.95;2.35;;;24.80;99.90;;;;;;4990094;28;20103;-47
2022/05/18 06:17:17;;;;;;;8.25;2.55;;;24.80;99.90;;;;;;4991364;28;20035;-46
2022/05/18 06:19:43;;;;;;;7.90;2.15;;;24.90;99.90;;;;;;4990883;28;20018;-47
2022/05/18 06:22:09;;;;;;;5.75;2.05;;;24.90;99.90;;;;;;4991435;28;20261;-46
2022/05/18 06:24:35;;;;;;;3.40;1.85;;;24.90;99.90;;;;;;4991163;28;20129;-47
2022/05/18 06:27:02;;;;;;;4.47;1.90;;;25.00;99.90;;;;;;4991046;28;20394;-46
2022/05/18 06:29:27;;;;;;;3.35;2.03;;;25.00;99.90;;;;;;4994416;28;20033;-47
2022/05/18 06:31:53;;;;;;;12.30;4.55;;;25.10;99.90;;;;;;4994752;28;20023;-47
2022/05/18 06:34:21;;;;;;;15.40;6.00;;;25.00;99.90;;;;;;4994768;28;20141;-47
2022/05/18 06:36:49;;;;;;;3.92;2.17;;;25.10;99.90;;;;;;4994848;28;20041;-47
2022/05/18 06:39:18;;;;;;;2.65;1.60;;;25.10;99.90;;;;;;4994537;28;20042;-47
2022/05/18 06:41:45;;;;;;;6.00;2.45;;;25.10;99.90;;;;;;4994495;28;20043;-46
2022/05/18 06:44:11;;;;;;;;;;;25.20;99.90;;;;;;4995257;28;20030;-46
2022/05/18 06:46:38;;;;;;;8.18;4.05;;;25.20;99.90;;;;;;4993268;28;19906;-47
2022/05/18 06:49:05;;;;;;;4.68;1.92;;;25.20;99.90;;;;;;4994588;28;20038;-46
2022/05/18 06:51:42;;;;;;;5.00;2.50;;;25.20;99.90;;;;;;4994221;28;20077;-46
2022/05/18 06:54:08;;;;;;;4.30;2.47;;;25.20;99.90;;;;;;4994580;28;20033;-46
2022/05/18 06:56:38;;;;;;;6.78;3.28;;;25.30;99.90;;;;;;4994094;28;20062;-46
2022/05/18 06:59:04;;;;;;;6.22;3.05;;;25.30;99.90;;;;;;4994306;28;20034;-46
2022/05/18 07:01:31;;;;;;;12.75;3.85;;;25.30;99.90;;;;;;4994019;28;20109;-47
2022/05/18 07:03:58;;;;;;;6.72;2.80;;;25.30;99.90;;;;;;4993986;28;20487;-46
2022/05/18 07:06:26;;;;;;;10.40;3.33;;;25.30;99.90;;;;;;4993954;28;20030;-46
2022/05/18 07:08:55;;;;;;;6.00;2.72;;;25.30;99.90;;;;;;4993943;28;20552;-47
2022/05/18 07:11:22;;;;;;;18.27;10.27;;;25.30;99.90;;;;;;4993961;28;20069;-46
2022/05/18 07:13:51;;;;;;;6.50;3.40;;;25.30;99.90;;;;;;4994055;28;20093;-47
2022/05/18 07:16:19;;;;;;;5.03;2.95;;;25.40;99.90;;;;;;4993755;28;20089;-47
2022/05/18 07:18:47;;;;;;;9.05;3.78;;;25.40;99.90;;;;;;4993745;28;20018;-47
2022/05/18 07:21:14;;;;;;;6.65;3.10;;;25.40;99.90;;;;;;4993860;28;20050;-47
2022/05/18 07:23:40;;;;;;;9.77;3.40;;;25.40;99.90;;;;;;4993889;28;20026;-46
2022/05/18 07:26:07;;;;;;;12.57;5.30;;;25.40;99.90;;;;;;4993559;28;20308;-47
2022/05/18 07:28:33;;;;;;;9.63;3.07;;;25.40;99.90;;;;;;4992296;28;20026;-46
2022/05/18 07:30:59;;;;;;;6.43;3.60;;;25.40;99.90;;;;;;4993786;28;20264;-46
2022/05/18 07:33:26;;;;;;;6.55;2.65;;;25.50;99.90;;;;;;4993544;28;20030;-47
2022/05/18 07:35:54;;;;;;;6.72;2.78;;;25.50;99.90;;;;;;4993538;28;20470;-47
2022/05/18 07:38:22;;;;;;;5.50;3.30;;;25.50;99.90;;;;;;4993343;28;20045;-46
2022/05/18 07:40:49;;;;;;;22.92;5.32;;;25.50;99.90;;;;;;4993258;28;20118;-47
2022/05/18 07:43:17;;;;;;;10.07;3.38;;;25.60;99.90;;;;;;4992238;28;20034;-47
2022/05/18 07:45:43;;;;;;;11.77;7.45;;;25.60;99.90;;;;;;4993581;28;20038;-46
2022/05/18 07:48:09;;;;;;;5.43;3.20;;;25.60;99.90;;;;;;4993238;28;20363;-47
2022/05/18 07:50:34;;;;;;;8.40;3.38;;;25.60;99.90;;;;;;4992686;28;20027;-47
2022/05/18 07:53:01;;;;;;;11.52;3.85;;;25.60;99.90;;;;;;4993289;28;20037;-46
2022/05/18 07:55:27;;;;;;;10.90;3.65;;;25.70;99.90;;;;;;4993200;28;20030;-45
2022/05/18 07:57:54;;;;;;;10.32;2.50;;;25.60;99.90;;;;;;4993094;28;20022;-46
2022/05/18 08:00:23;;;;;;;13.10;3.43;;;25.60;99.90;;;;;;4993130;28;20039;-46
2022/05/18 08:02:49;;;;;;;7.78;2.85;;;25.50;99.90;;;;;;4993272;28;20458;-46
2022/05/18 08:05:16;;;;;;;12.40;4.90;;;25.50;99.90;;;;;;4993269;28;20113;-46
2022/05/18 08:07:45;;;;;;;5.50;3.72;;;25.50;99.90;;;;;;4993309;28;20022;-47
2022/05/18 08:15:44;;;;;;;12.10;2.88;;;25.60;99.90;;;;;;4993360;28;20026;-46
2022/05/18 08:18:11;;;;;;;10.02;2.25;;;25.60;99.90;;;;;;4992902;28;20080;-46
2022/05/18 08:20:41;;;;;;;7.40;2.38;;;25.60;99.90;;;;;;4992785;28;20038;-46
2022/05/18 08:23:07;;;;;;;8.40;2.50;;;25.60;99.90;;;;;;4992581;28;20046;-47
2022/05/18 08:25:33;;;;;;;7.70;2.75;;;25.60;99.90;;;;;;4992432;28;20065;-46
2022/05/18 08:27:59;;;;;;;10.00;2.42;;;25.70;99.90;;;;;;4992519;28;20502;-47
2022/05/18 08:30:25;;;;;;;7.60;2.10;;;25.70;99.90;;;;;;4991217;28;20033;-46
2022/05/18 08:32:51;;;;;;;7.57;1.67;;;25.70;99.90;;;;;;4992564;28;20073;-47
2022/05/18 08:35:18;;;;;;;8.20;2.35;;;25.70;99.90;;;;;;4992708;28;20494;-46
2022/05/18 08:37:46;;;;;;;6.63;2.58;;;25.70;99.90;;;;;;4992695;28;20033;-47
2022/05/18 08:40:30;;;;;;;4.55;1.63;;;25.80;99.90;;;;;;4992320;28;20157;-46
2022/05/18 08:42:58;;;;;;;6.75;2.38;;;25.80;99.90;;;;;;4991160;28;20509;-46
2022/05/18 08:45:30;;;;;;;5.75;2.20;;;25.80;99.90;;;;;;4992096;28;20502;-46
2022/05/18 08:48:37;;;;;;;7.55;2.30;;;25.80;99.90;;;;;;4992392;28;20501;-46
2022/05/18 08:51:11;;;;;;;5.78;2.15;;;25.80;99.90;;;;;;4972470;28;20062;-47
2022/05/18 08:54:04;;;;;;;11.80;2.63;;;25.80;99.90;;;;;;4990090;28;20069;-46
2022/05/18 08:56:36;;;;;;;6.78;2.15;;;25.80;99.90;;;;;;4990807;28;20034;-49
2022/05/18 08:59:09;;;;;;;6.22;2.15;;;25.70;99.90;;;;;;4992055;28;20101;-47
2022/05/18 09:01:46;;;;;;;11.13;2.78;;;25.70;99.90;;;;;;4991660;28;20069;-47
2022/05/18 09:04:17;;;;;;;7.43;2.97;;;25.70;99.90;;;;;;4991917;28;20040;-47
2022/05/18 09:06:56;;;;;;;7.55;3.58;;;25.70;99.90;;;;;;4991821;28;20030;-47
2022/05/18 09:12:30;;;;;;;5.85;2.00;;;25.60;99.90;;;;;;4992010;28;20493;-46
2022/05/18 09:14:56;;;;;;;5.55;2.72;;;25.60;99.90;;;;;;4991885;28;20022;-46
2022/05/18 09:17:43;;;;;;;4.38;2.00;;;25.60;99.90;;;;;;4991928;28;20026;-46
2022/05/18 09:20:22;;;;;;;10.75;2.63;;;25.60;99.90;;;;;;4991978;28;20041;-46
2022/05/18 09:23:07;;;;;;;11.27;6.18;;;25.60;99.90;;;;;;4992206;28;20038;-46
2022/05/18 09:26:07;;;;;;;4.78;2.90;;;25.60;99.90;;;;;;4991704;28;20113;-46
2022/05/18 09:29:04;;;;;;;7.88;2.58;;;25.60;99.90;;;;;;4991648;28;20037;-46
2022/05/18 09:31:52;;;;;;;8.40;2.65;;;25.60;99.90;;;;;;4991703;28;20041;-46
2022/05/18 09:34:48;;;;;;;8.65;2.70;;;25.60;99.90;;;;;;4991923;28;20057;-46
2022/05/18 09:37:13;;;;;;;7.53;2.47;;;25.60;99.90;;;;;;4991763;28;20037;-46
2022/05/18 09:39:46;;;;;;;9.30;2.20;;;25.70;99.90;;;;;;4991770;28;20027;-46
2022/05/18 09:42:16;;;;;;;4.63;2.25;;;25.60;99.90;;;;;;4991733;28;20050;-46
2022/05/18 09:45:08;;;;;;;8.60;2.92;;;25.70;99.90;;;;;;4991549;28;20437;-46
2022/05/18 09:48:07;;;;;;;11.05;2.28;;;25.70;99.90;;;;;;4991755;28;20049;-46
2022/05/18 09:50:36;;;;;;;7.05;2.95;;;25.70;99.90;;;;;;4991512;28;20030;-47
2022/05/18 09:53:02;;;;;;;13.00;2.67;;;25.70;99.90;;;;;;4991572;28;20022;-46
2022/05/18 09:55:28;;;;;;;6.28;2.05;;;25.80;99.90;;;;;;4991520;28;20030;-46
2022/05/18 09:57:58;;;;;;;6.82;2.88;;;25.70;99.90;;;;;;4991738;28;20030;-46
2022/05/18 10:00:27;;;;;;;10.95;2.53;;;25.80;99.90;;;;;;4991369;28;20108;-46
2022/05/18 10:09:15;;;;;;;11.50;2.42;;;25.80;99.90;;;;;;4995409;28;20073;-46
2022/05/18 10:11:41;;;;;;;9.88;2.78;;;25.90;99.90;;;;;;4995009;28;20374;-46
2022/05/18 10:14:10;;;;;;;7.15;3.10;;;25.90;99.90;;;;;;4995114;28;20022;-45
2022/05/18 10:16:43;;;;;;;7.80;2.40;;;25.90;99.90;;;;;;4994949;28;20027;-45
2022/05/18 10:19:45;;;;;;;9.48;1.90;;;26.00;99.90;;;;;;4994961;28;20030;-45
2022/05/18 10:22:17;;;;;;;5.72;1.75;;;26.00;99.90;;;;;;4994804;28;20077;-46
2022/05/18 10:24:50;;;;;;;8.85;2.00;;;26.00;99.90;;;;;;4994906;28;20042;-45
2022/05/18 10:27:16;;;;;;;9.65;2.40;;;26.00;99.90;;;;;;4995049;28;20098;-45
2022/05/18 10:30:29;;;;;;;4.22;1.85;;;26.10;99.90;;;;;;4994933;28;20110;-45
2022/05/18 10:33:19;;;;;;;10.80;2.10;;;26.10;99.90;;;;;;4993618;28;20019;-46
2022/05/18 10:35:53;;;;;;;6.30;2.75;;;26.10;99.90;;;;;;4994862;28;20514;-46
2022/05/18 10:38:33;;;;;;;5.93;2.20;;;26.10;99.90;;;;;;4994824;28;20046;-46
2022/05/18 10:41:15;;;;;;;9.07;2.08;;;26.20;99.90;;;;;;4994715;28;20034;-46
2022/05/18 10:44:05;;;;;;;12.95;2.25;;;26.20;99.90;;;;;;4994674;28;20022;-47
2022/05/18 10:46:51;;;;;;;4.38;1.95;;;26.30;99.90;;;;;;4987115;28;20034;-46
2022/05/18 10:49:34;;;;;;;6.95;2.22;;;26.30;99.90;;;;;;4994415;28;20037;-47
2022/05/18 10:52:19;;;;;;;6.05;2.28;;;26.30;99.90;;;;;;4975031;28;20105;-46
2022/05/18 10:54:55;;;;;;;6.45;1.95;;;26.30;99.90;;;;;;4975104;28;20537;-46
2022/05/18 10:57:32;;;;;;;6.70;1.52;;;26.30;99.90;;;;;;4975127;28;20410;-46
2022/05/18 11:00:08;;;;;;;4.03;1.42;;;26.40;99.90;;;;;;4974787;28;20057;-46
2022/05/18 11:02:45;;;;;;;4.43;1.60;;;26.40;99.90;;;;;;4974972;28;20479;-46
2022/05/18 11:05:43;;;;;;;4.25;1.63;;;26.40;99.90;;;;;;4974621;28;20023;-46
2022/05/18 11:08:17;;;;;;;4.15;1.70;;;26.40;99.90;;;;;;4962510;28;20047;-45
2022/05/18 11:10:45;;;;;;;8.00;2.10;;;26.40;99.90;;;;;;4974589;28;20027;-47
2022/05/18 11:13:21;;;;;;;8.35;1.67;;;26.40;99.90;;;;;;4974627;28;20019;-48
2022/05/18 11:15:55;;;;;;;3.92;1.70;;;26.40;99.90;;;;;;4974713;28;20117;-47
2022/05/18 11:18:44;;;;;;;4.97;2.33;;;26.40;99.90;;;;;;4973216;28;20122;-47
2022/05/18 11:21:23;;;;;;;8.63;2.17;;;26.40;99.90;;;;;;4974344;28;20109;-46
2022/05/18 11:23:56;;;;;;;5.78;2.05;;;26.40;99.90;;;;;;4973295;28;20428;-46
2022/05/18 11:26:43;;;;;;;5.85;2.10;;;26.40;99.90;;;;;;4974528;28;20034;-46
2022/05/18 11:29:33;;;;;;;4.93;2.45;;;26.50;99.90;;;;;;4991844;28;20068;-46
2022/05/18 11:32:13;;;;;;;6.60;1.90;;;26.40;99.90;;;;;;4974309;28;20030;-46
2022/05/18 11:35:14;;;;;;;8.15;2.20;;;26.50;99.90;;;;;;4974164;28;20046;-46
2022/05/18 11:38:02;;;;;;;8.27;2.70;;;26.50;99.90;;;;;;4974121;28;20110;-46
2022/05/18 11:40:49;;;;;;;9.18;1.95;;;26.50;99.90;;;;;;4974022;28;20019;-45
2022/05/18 11:43:35;;;;;;;9.65;2.40;;;26.50;99.90;;;;;;4974233;28;20501;-45
2022/05/18 11:46:32;;;;;;;5.35;2.17;;;26.50;99.90;;;;;;4982078;28;20038;-44
2022/05/18 11:49:35;;;;;;;8.15;3.15;;;26.60;99.90;;;;;;4992497;28;20026;-44
2022/05/18 11:52:25;;;;;;;7.10;2.47;;;26.70;99.90;;;;;;4987394;28;20482;-45
2022/05/18 11:55:20;;;;;;;6.95;2.05;;;26.80;99.90;;;;;;4989479;28;20022;-45
2022/05/18 11:58:20;;;;;;;9.15;3.20;;;26.80;99.90;;;;;;4992063;28;20034;-44
2022/05/18 12:01:05;;;;;;;5.20;2.05;;;26.90;99.90;;;;;;4989467;28;20051;-44
2022/05/18 12:03:49;;;;;;;9.30;2.60;;;26.90;99.90;;;;;;4992448;28;20018;-45
2022/05/18 12:06:50;;;;;;;8.15;3.13;;;26.90;99.90;;;;;;4989146;28;20030;-45
2022/05/18 12:09:38;;;;;;;8.10;2.60;;;26.90;99.90;;;;;;4972379;28;20492;-46
2022/05/18 12:12:04;;;;;;;10.10;2.70;;;26.90;99.90;;;;;;4984715;28;20018;-45
2022/05/18 12:14:53;;;;;;;10.75;3.13;;;26.90;99.90;;;;;;4990779;28;20486;-46
2022/05/18 12:17:25;;;;;;;6.07;2.70;;;26.90;99.90;;;;;;4990949;28;20037;-45
2022/05/18 12:19:57;;;;;;;12.40;3.13;;;27.00;99.90;;;;;;4990588;28;20065;-46
2022/05/18 12:22:24;;;;;;;15.40;3.65;;;27.00;99.90;;;;;;4991480;28;20498;-45
2022/05/18 12:24:52;;;;;;;11.63;3.80;;;27.10;99.90;;;;;;4992102;28;20120;-46
2022/05/18 12:27:21;;;;;;;12.02;3.05;;;27.10;99.90;;;;;;4990437;28;20080;-45
2022/05/18 12:29:50;;;;;;;10.23;2.70;;;27.20;99.90;;;;;;4992774;28;20383;-47
2022/05/18 12:32:18;;;;;;;9.50;2.97;;;27.20;99.90;;;;;;4991566;28;20026;-46
2022/05/18 12:34:56;;;;;;;9.05;2.95;;;27.30;99.90;;;;;;4990391;28;20033;-47
2022/05/18 12:37:31;;;;;;;11.30;3.30;;;27.40;99.90;;;;;;4990867;28;20109;-47
2022/05/18 12:40:03;;;;;;;13.75;5.78;;;27.50;99.90;;;;;;4992639;28;20022;-46
2022/05/18 12:42:30;;;;;;;11.35;2.90;;;27.50;99.90;;;;;;4992455;28;20042;-46
2022/05/18 12:45:02;;;;;;;14.02;4.47;;;27.60;99.90;;;;;;4992477;28;20022;-46
2022/05/18 12:47:52;;;;;;;10.68;5.07;;;27.60;99.90;;;;;;4992515;28;20034;-45
2022/05/18 12:50:35;;;;;;;7.75;2.90;;;27.60;99.90;;;;;;4988394;28;20485;-46
2022/05/18 12:53:10;;;;;;;4.28;2.30;;;27.60;99.90;;;;;;4973768;28;20073;-46
2022/05/18 12:55:44;;;;;;;8.68;3.25;;;27.60;99.90;;;;;;4991495;28;20114;-47
2022/05/18 12:58:09;;;;;;;7.25;4.00;;;27.60;99.90;;;;;;4971847;28;20113;-46
2022/05/18 13:00:50;;;;;;;7.85;4.82;;;27.60;99.90;;;;;;4972111;28;20522;-46
2022/05/18 13:03:16;;;;;;;9.02;4.22;;;27.70;99.90;;;;;;4972395;28;20038;-45
2022/05/18 13:05:44;;;;;;;11.00;6.25;;;27.70;99.90;;;;;;4976488;28;20027;-47
2022/05/18 13:08:16;;;;;;;14.27;6.90;;;27.70;99.90;;;;;;4981735;28;20034;-46
2022/05/18 13:11:13;;;;;;;4.97;2.40;;;27.70;99.90;;;;;;4983502;28;20469;-48
2022/05/18 13:14:00;;;;;;;6.97;3.70;;;27.80;99.90;;;;;;4985821;28;20023;-46
2022/05/18 13:16:38;;;;;;;6.30;4.63;;;27.80;99.90;;;;;;4985081;28;20466;-47
2022/05/18 13:19:13;;;;;;;8.15;3.42;;;27.80;99.90;;;;;;4991442;28;20084;-45
2022/05/18 13:21:44;;;;;;;18.63;4.43;;;27.80;99.90;;;;;;4991423;28;20109;-45
2022/05/18 13:24:24;;;;;;;4.47;1.98;;;27.90;99.90;;;;;;4975593;28;20038;-45